Latest Coastal Weather Observations for Avalon

IDV60701

Issued at 10:22 am EDT Wednesday 13 December 2017 (issued every 10 minutes, with the page automatically refreshed every 10 minutes)

About coastal observations | Map of coastal stations | Coastal observations for VIC | Marine services | Other Formats
Station Details ID: 087113 Name: AVALON AIRPORT Lat: -38.03 Lon: 144.48 Height: 10.6 m
Data from the previous 72 hours. | See also: Recent months at Avalon
Date/Time
EDT
Temp
°C
Wind Pressure Rain since
9am
mm
Weather Cloud Vis
km
Sea
Height
m
Swell
Dir  Spd
kts
Gust
kts
hPa Trend Height
m
Period
s
Dir
13/10:00am 27.1 SE 7 9 1008.0 - 0.0 - - 10 - - - -
13/09:30am 26.1 E 5 7 1008.3 - 0.0 - - 10 - - - -
13/09:00am 23.2 ENE 5 6 1008.4 - 0.0 - - 10 - - - -
13/08:30am 20.9 ENE 5 6 1008.6 - 0.0 - - 10 - - - -
13/08:00am 17.8 ENE 4 5 1008.9 - 0.0 - - 10 - - - -
13/07:30am 15.9 ENE 5 6 1009.0 - 0.0 - - 10 - - - -
13/07:00am 14.1 E 4 5 1009.0 - 0.0 - - 10 - - - -
13/06:30am 12.3 ENE 5 6 1008.9 - 0.0 - - 10 - - - -
13/06:00am 12.4 NE 4 5 1009.0 - 0.0 - - 10 - - - -
13/05:30am 13.3 NE 5 6 1009.0 - 0.0 - - 10 - - - -
13/05:00am 12.8 NNE 5 6 1009.1 - 0.0 - - 10 - - - -
13/04:30am 13.3 NNE 4 5 1009.5 - 0.0 - - 10 - - - -
13/04:00am 12.8 NE 5 5 1009.6 - 0.0 - - 10 - - - -
13/03:30am 13.5 NE 5 6 1010.0 - 0.0 - - 10 - - - -
13/03:00am 13.8 NNE 6 8 1010.4 - 0.0 - Mostly clear 10 - - - -
13/02:30am 13.7 NNE 5 7 1011.0 - 0.0 - - 10 - - - -
13/02:00am 13.3 CALM 0 0 1011.6 - 0.0 - - 10 - - - -
13/01:30am 13.2 N 4 5 1012.2 - 0.0 - - 10 - - - -
13/01:00am 12.7 NW 5 5 1012.6 - 0.0 - - 10 - - - -
13/12:30am 13.6 NNW 5 5 1013.1 - 0.0 - - 10 - - - -
13/12:00am 13.8 N 5 6 1013.4 - 0.0 - Mostly clear 10 - - - -
 
Date/Time
EDT
Temp
°C
Wind Pressure Rain since
9am
mm
Weather Cloud Vis
km
Sea
Height
m
Swell
Dir  Spd
kts
Gust
kts
hPa Trend Height
m
Period
s
Dir
12/11:30pm 14.3 W 3 4 1013.7 - 0.0 - - 10 - - - -
12/11:00pm 14.8 WSW 4 6 1014.0 - 0.0 - - 10 - - - -
12/10:30pm 15.7 CALM 0 0 1014.0 - 0.0 - - 10 - - - -
12/10:00pm 15.2 SSW 6 8 1014.2 - 0.0 - - 10 - - - -
12/09:30pm 15.5 SSW 5 7 1014.2 - 0.0 - - 10 - - - -
12/09:00pm 16.0 SSW 6 6 1014.2 - 0.0 - - 10 - - - -
12/08:30pm 17.5 SSW 7 8 1014.2 - 0.0 - - 10 - - - -
12/08:00pm 18.8 S 6 7 1014.2 - 0.0 - - 10 - - - -
12/07:30pm 19.7 SSE 7 9 1014.2 - 0.0 - - 10 - - - -
12/07:00pm 20.7 SSE 9 11 1014.1 - 0.0 - - 10 - - - -
12/06:30pm 21.3 SSE 11 14 1014.2 - 0.0 - - 10 - - - -
12/06:00pm 22.0 SSE 11 15 1014.5 - 0.0 - - 10 - - - -
12/05:30pm 23.5 SSE 10 16 1014.9 - 0.0 - - 10 - - - -
12/05:00pm 23.6 SE 10 13 1014.9 - 0.0 - - 10 - - - -
12/04:30pm 23.8 ESE 10 14 1015.0 - 0.0 - - 10 - - - -
12/04:00pm 23.6 ESE 10 13 1015.4 - 0.0 - - 10 - - - -
12/03:30pm 23.6 SE 10 13 1015.6 - 0.0 - - 10 - - - -
12/03:00pm 23.5 SE 9 12 1015.9 - 0.0 - - 10 - - - -
12/02:30pm 22.8 SE 9 12 1016.2 - 0.0 - - 10 - - - -
12/02:00pm 22.0 SE 10 15 1016.6 - 0.0 - - 10 - - - -
12/01:30pm 21.5 SE 9 12 1016.9 - 0.0 - - 10 - - - -
12/01:00pm 21.3 SE 7 10 1017.0 - 0.0 - - 10 - - - -
12/12:30pm 21.1 ESE 7 12 1017.3 - 0.0 - - 10 - - - -
12/12:00pm 20.4 SSE 8 11 1017.7 - 0.0 - - 10 - - - -
12/11:30am 19.9 ESE 8 11 1017.7 - 0.0 - - 10 - - - -
12/11:00am 19.6 ESE 8 13 1018.1 - 0.0 - - 10 - - - -
12/10:30am 19.3 SE 9 12 1018.3 - 0.0 - - 10 - - - -
12/10:00am 19.0 SE 8 12 1018.5 - 0.0 - - 10 - - - -
12/09:30am 18.4 ENE 7 11 1018.9 - 0.0 - - 10 - - - -
12/09:00am 17.7 ESE 7 11 1019.2 - 0.0 Fine Mostly clear 10 - - - -
12/08:30am 17.5 SE 4 6 1019.2 - - - - 10 - - - -
12/08:00am 17.1 ESE 5 7 1019.1 - - - - 10 - - - -
12/07:30am 15.8 ESE 4 5 1018.9 - - - Partly cloudy 10 - - - -
12/07:00am 14.5 CALM 0 0 1018.9 - - - Partly cloudy 10 - - - -
12/06:30am 14.1 SE 5 6 1018.6 - - - Cloudy 10 - - - -
12/06:00am 14.2 SSE 3 6 1018.7 - - - Cloudy 10 - - - -
12/05:30am 13.9 S 5 7 1018.7 - - - Partly cloudy 10 - - - -
12/05:00am 14.4 SSE 6 8 1018.5 - - - Cloudy 10 - - - -
12/04:30am 15.1 SSE 5 6 1018.5 - - - Cloudy 10 - - - -
12/04:00am 15.5 SSE 6 7 1018.7 - - - Cloudy 10 - - - -
12/03:30am 15.5 SSE 5 7 1018.8 - - - Cloudy 10 - - - -
12/03:00am 15.4 S 7 10 1019.1 - 0.0 - Cloudy 10 - - - -
12/02:30am 15.3 SSE 6 8 1019.4 - - - Cloudy 10 - - - -
12/02:00am 15.1 S 5 7 1019.8 - - - Cloudy 10 - - - -
12/01:30am 14.9 SSE 6 7 1020.1 - - - Cloudy 10 - - - -
12/01:00am 15.2 S 6 7 1020.4 - - - Cloudy 10 - - - -
12/12:30am 15.4 S 7 9 1020.7 - - - Cloudy 10 - - - -
12/12:00am 15.7 S 7 10 1021.1 - - - Cloudy 10 - - - -
 
Date/Time
EDT
Temp
°C
Wind Pressure Rain since
9am
mm
Weather Cloud Vis
km
Sea
Height
m
Swell
Dir  Spd
kts
Gust
kts
hPa Trend Height
m
Period
s
Dir
11/11:30pm 15.5 SSE 7 8 1021.3 - - - Cloudy 10 - - - -
11/11:00pm 15.7 SSE 7 10 1021.4 - - - Cloudy 10 - - - -
11/10:30pm 15.9 S 8 11 1021.5 - - - Cloudy 10 - - - -
11/10:00pm 15.8 S 8 11 1021.5 - - - Cloudy 10 - - - -
11/09:30pm 14.8 S 7 10 1021.3 - - - - 10 - - - -
11/09:00pm 15.5 S 9 11 1021.3 - 0.0 - Partly cloudy 10 - - - -
11/08:30pm 16.0 S 11 14 1021.1 - - - Partly cloudy 10 - - - -
11/08:00pm 16.7 S 11 14 1021.1 - - - Partly cloudy 10 - - - -
11/07:30pm 17.5 S 13 18 1020.8 - - - Partly cloudy 10 - - - -
11/07:00pm 18.1 S 13 18 1020.6 - - - Partly cloudy 10 - - - -
11/06:30pm 18.3 S 14 18 1020.4 - - - Partly cloudy 10 - - - -
11/06:00pm 18.4 S 14 20 1020.2 - - - Mostly clear 10 - - - -
11/05:30pm 19.3 S 15 19 1020.2 - - - - 10 - - - -
11/05:00pm 19.7 S 14 19 1020.1 - - - - 10 - - - -
11/04:30pm 20.1 S 15 19 1020.2 - - - - 10 - - - -
11/04:00pm 20.5 S 15 19 1020.3 - - - - 10 - - - -
11/03:30pm 21.1 S 11 15 1020.1 - - - - 10 - - - -
11/03:00pm 21.0 SE 9 14 1020.4 - - - - 10 - - - -
11/02:30pm 20.0 ESE 9 15 1020.6 - - - - 10 - - - -
11/02:00pm 21.0 SSW 9 13 1020.8 - 0.0 - - 10 - - - -
11/01:30pm 20.9 SSW 8 13 1021.0 - 0.0 - - 10 - - - -
11/01:00pm 19.6 S 8 13 1021.3 - 0.0 - - 10 - - - -
11/12:30pm 19.8 SSW 8 16 1021.7 - 0.0 - - 10 - - - -
11/12:00pm 19.5 S 8 13 1021.9 - 0.0 - - 10 - - - -
11/11:30am 19.3 S 7 11 1022.1 - 0.0 - - 10 - - - -
11/11:00am 18.9 SSE 7 11 1022.2 - 0.0 - - 10 - - - -
11/10:30am 18.4 ESE 3 7 1022.3 - 0.0 - - 10 - - - -
11/10:00am 17.2 SSW 5 9 1022.3 - 0.0 - - 10 - - - -
11/09:30am 17.0 S 5 7 1022.4 - 0.0 - - 10 - - - -
11/09:00am 16.2 W 3 5 1022.3 - 0.0 - - 10 - - - -
11/08:30am 15.9 W 5 7 1022.2 - 0.0 - - 10 - - - -
11/08:00am 15.6 W 6 8 1022.1 - 0.0 - - 10 - - - -
11/07:30am 15.2 WSW 8 10 1022.0 - 0.0 - - 10 - - - -
11/07:00am 15.0 W 6 8 1021.8 - 0.0 - - 10 - - - -
11/06:30am 14.6 W 5 7 1021.5 - 0.0 - - 10 - - - -
11/06:00am 14.6 WNW 6 7 1021.2 - 0.0 - - 10 - - - -
11/05:30am 14.7 W 6 7 1021.4 - 0.0 - - 10 - - - -
11/05:00am 14.9 W 5 6 1021.3 - 0.0 - - 10 - - - -
11/04:30am 14.9 W 4 6 1021.2 - 0.0 - - 10 - - - -
11/04:00am 15.0 W 4 6 1021.2 - 0.0 - - 10 - - - -
11/03:30am 15.1 W 4 5 1021.2 - 0.0 - - 10 - - - -
11/03:00am 15.2 WNW 4 5 1021.4 - 0.0 - - 10 - - - -
11/02:30am 15.2 SW 5 6 1021.8 - 0.0 - - 10 - - - -
11/02:00am 15.3 SW 5 6 1022.1 - 0.0 - - 10 - - - -
11/01:30am 15.5 SSW 6 8 1022.4 - 0.0 - - 10 - - - -
11/01:00am 15.7 SSW 8 10 1022.7 - 0.0 - - 10 - - - -
11/12:30am 15.7 SSW 7 10 1022.9 - 0.0 - - 10 - - - -
11/12:00am 16.0 SSW 8 10 1023.2 - 0.0 - - 10 - - - -
 
Date/Time
EDT
Temp
°C
Wind Pressure Rain since
9am
mm
Weather Cloud Vis
km
Sea
Height
m
Swell
Dir  Spd
kts
Gust
kts
hPa Trend Height
m
Period
s
Dir
10/11:30pm 16.1 S 7 10 1023.2 - 0.0 - - 10 - - - -
10/11:00pm 16.0 S 6 8 1023.2 - 0.0 - - 10 - - - -
10/10:30pm 16.3 S 9 12 1023.5 - 0.0 - - 10 - - - -
10/10:00pm 16.3 S 9 13 1023.5 - 0.0 - - 10 - - - -
10/09:30pm 16.4 S 11 14 1023.4 - 0.0 - - 10 - - - -
10/09:00pm 16.6 S 9 13 1023.2 - 0.0 - - 10 - - - -
10/08:30pm 16.6 S 9 11 1023.0 - 0.0 - - 10 - - - -
10/08:00pm 16.9 S 11 14 1022.7 - 0.0 - - 10 - - - -
10/07:30pm 17.3 SSE 11 16 1022.4 - 0.0 - - 10 - - - -
10/07:00pm 19.1 SSE 11 16 1022.1 - 0.0 - - 10 - - - -
10/06:30pm 18.4 S 11 15 1021.9 - 0.0 - - 10 - - - -
10/06:00pm 19.5 S 13 17 1021.7 - 0.0 - - 10 - - - -
10/05:30pm 20.2 SSE 14 19 1021.5 - 0.0 - - 10 - - - -
10/05:00pm 20.9 S 13 17 1021.4 - 0.0 - - 10 - - - -
10/04:30pm 21.8 S 13 16 1021.5 - 0.0 - - 10 - - - -
10/04:00pm 21.6 ESE 13 17 1021.3 - 0.0 - - 10 - - - -
10/03:30pm 24.4 SSW 12 16 1021.3 - 0.0 - - 10 - - - -
10/03:00pm 23.0 S 13 16 1021.2 - 0.0 - - 10 - - - -
10/02:30pm 22.6 S 11 16 1021.4 - 0.0 - - 10 - - - -
10/02:00pm 21.7 S 11 16 1021.7 - 0.0 - - 10 - - - -
10/01:30pm 21.6 SSW 9 15 1022.1 - 0.0 - - 10 - - - -
10/01:00pm 21.2 S 8 14 1022.4 - 0.0 - - 10 - - - -
10/12:30pm 20.3 SSW 7 10 1022.8 - 0.0 - - 10 - - - -
10/12:00pm 19.7 SSE 6 9 1023.0 - 0.0 - - 10 - - - -
10/11:30am 18.7 WSW 6 9 1023.2 - 0.0 - - 10 - - - -
10/11:00am 18.0 SW 6 9 1023.2 - 0.0 - - 10 - - - -
10/10:30am 17.4 WSW 6 8 1023.4 - 0.0 - - 10 - - - -

Other Formats:

Comma delimited format used in spreadsheet applications
http://www.bom.gov.au/fwo/IDV60701/IDV60701.94854.axf

JavaScript Object Notation format (JSON) in row-major order
http://www.bom.gov.au/fwo/IDV60701/IDV60701.94854.json